sensor_id;sensor_type;location;lat;lon;timestamp;P1;durP1;ratioP1;P2;durP2;ratioP2
48578;SDS011;34357;51.948;6.132;2023-09-07T00:00:13;8.95;;;6.68;;
48578;SDS011;34357;51.948;6.132;2023-09-07T00:02:40;9.70;;;6.65;;
48578;SDS011;34357;51.948;6.132;2023-09-07T00:05:06;7.60;;;6.65;;
48578;SDS011;34357;51.948;6.132;2023-09-07T00:07:32;9.75;;;7.32;;
48578;SDS011;34357;51.948;6.132;2023-09-07T00:09:58;12.23;;;8.00;;
48578;SDS011;34357;51.948;6.132;2023-09-07T00:12:25;9.02;;;7.32;;
48578;SDS011;34357;51.948;6.132;2023-09-07T00:14:52;10.38;;;8.23;;
48578;SDS011;34357;51.948;6.132;2023-09-07T00:17:19;10.27;;;7.95;;
48578;SDS011;34357;51.948;6.132;2023-09-07T00:19:45;11.48;;;7.97;;
48578;SDS011;34357;51.948;6.132;2023-09-07T00:22:14;9.35;;;7.88;;
48578;SDS011;34357;51.948;6.132;2023-09-07T00:24:39;9.85;;;8.60;;
48578;SDS011;34357;51.948;6.132;2023-09-07T00:27:05;13.15;;;8.75;;
48578;SDS011;34357;51.948;6.132;2023-09-07T00:29:33;14.02;;;8.75;;
48578;SDS011;34357;51.948;6.132;2023-09-07T00:32:02;10.65;;;9.02;;
48578;SDS011;34357;51.948;6.132;2023-09-07T00:34:27;12.27;;;9.13;;
48578;SDS011;34357;51.948;6.132;2023-09-07T00:36:53;14.30;;;9.10;;
48578;SDS011;34357;51.948;6.132;2023-09-07T00:39:19;14.52;;;9.45;;
48578;SDS011;34357;51.948;6.132;2023-09-07T00:41:44;9.60;;;8.63;;
48578;SDS011;34357;51.948;6.132;2023-09-07T00:44:10;9.50;;;8.50;;
48578;SDS011;34357;51.948;6.132;2023-09-07T00:46:36;11.57;;;8.45;;
48578;SDS011;34357;51.948;6.132;2023-09-07T00:49:02;11.68;;;8.98;;
48578;SDS011;34357;51.948;6.132;2023-09-07T00:51:30;11.88;;;8.98;;
48578;SDS011;34357;51.948;6.132;2023-09-07T00:53:56;11.07;;;9.10;;
48578;SDS011;34357;51.948;6.132;2023-09-07T00:56:24;11.23;;;9.35;;
48578;SDS011;34357;51.948;6.132;2023-09-07T00:58:52;11.90;;;9.15;;
48578;SDS011;34357;51.948;6.132;2023-09-07T01:01:20;13.23;;;9.68;;
48578;SDS011;34357;51.948;6.132;2023-09-07T01:03:48;12.43;;;9.50;;
48578;SDS011;34357;51.948;6.132;2023-09-07T01:07:16;10.35;;;9.30;;
48578;SDS011;34357;51.948;6.132;2023-09-07T01:09:19;12.45;;;9.32;;
48578;SDS011;34357;51.948;6.132;2023-09-07T01:11:46;10.25;;;9.23;;
48578;SDS011;34357;51.948;6.132;2023-09-07T01:14:12;10.40;;;9.30;;
48578;SDS011;34357;51.948;6.132;2023-09-07T01:16:38;12.95;;;10.15;;
48578;SDS011;34357;51.948;6.132;2023-09-07T01:19:05;10.40;;;9.27;;
48578;SDS011;34357;51.948;6.132;2023-09-07T01:21:35;11.02;;;9.48;;
48578;SDS011;34357;51.948;6.132;2023-09-07T01:24:09;11.07;;;9.52;;
48578;SDS011;34357;51.948;6.132;2023-09-07T01:26:36;15.52;;;10.95;;
48578;SDS011;34357;51.948;6.132;2023-09-07T01:29:06;11.43;;;9.90;;
48578;SDS011;34357;51.948;6.132;2023-09-07T01:31:37;14.02;;;11.00;;
48578;SDS011;34357;51.948;6.132;2023-09-07T01:34:04;13.20;;;10.15;;
48578;SDS011;34357;51.948;6.132;2023-09-07T01:36:31;12.27;;;10.85;;
48578;SDS011;34357;51.948;6.132;2023-09-07T01:38:58;13.65;;;10.27;;
48578;SDS011;34357;51.948;6.132;2023-09-07T01:41:24;11.70;;;10.50;;
48578;SDS011;34357;51.948;6.132;2023-09-07T01:43:50;12.10;;;10.90;;
48578;SDS011;34357;51.948;6.132;2023-09-07T01:46:16;11.45;;;10.23;;
48578;SDS011;34357;51.948;6.132;2023-09-07T01:48:41;11.68;;;10.20;;
48578;SDS011;34357;51.948;6.132;2023-09-07T01:51:08;11.57;;;10.32;;
48578;SDS011;34357;51.948;6.132;2023-09-07T01:53:34;11.55;;;9.68;;
48578;SDS011;34357;51.948;6.132;2023-09-07T01:55:59;12.27;;;10.07;;
48578;SDS011;34357;51.948;6.132;2023-09-07T01:58:25;10.15;;;9.07;;
48578;SDS011;34357;51.948;6.132;2023-09-07T02:00:52;11.43;;;9.20;;
48578;SDS011;34357;51.948;6.132;2023-09-07T02:05:47;12.45;;;9.20;;
48578;SDS011;34357;51.948;6.132;2023-09-07T02:08:13;11.45;;;9.65;;
48578;SDS011;34357;51.948;6.132;2023-09-07T02:10:39;10.02;;;9.00;;
48578;SDS011;34357;51.948;6.132;2023-09-07T02:13:04;10.95;;;9.68;;
48578;SDS011;34357;51.948;6.132;2023-09-07T02:15:30;10.40;;;8.90;;
48578;SDS011;34357;51.948;6.132;2023-09-07T02:17:56;10.75;;;9.32;;
48578;SDS011;34357;51.948;6.132;2023-09-07T02:20:22;11.93;;;8.57;;
48578;SDS011;34357;51.948;6.132;2023-09-07T02:22:47;12.10;;;9.35;;
48578;SDS011;34357;51.948;6.132;2023-09-07T02:25:13;12.00;;;9.48;;
48578;SDS011;34357;51.948;6.132;2023-09-07T02:27:39;12.63;;;9.27;;
48578;SDS011;34357;51.948;6.132;2023-09-07T02:30:05;13.10;;;9.50;;
48578;SDS011;34357;51.948;6.132;2023-09-07T02:32:32;12.32;;;9.05;;
48578;SDS011;34357;51.948;6.132;2023-09-07T02:34:58;12.63;;;8.27;;
48578;SDS011;34357;51.948;6.132;2023-09-07T02:37:24;9.65;;;8.65;;
48578;SDS011;34357;51.948;6.132;2023-09-07T02:39:50;11.05;;;8.82;;
48578;SDS011;34357;51.948;6.132;2023-09-07T02:42:15;13.70;;;8.32;;
48578;SDS011;34357;51.948;6.132;2023-09-07T02:44:41;9.23;;;8.02;;
48578;SDS011;34357;51.948;6.132;2023-09-07T02:47:07;16.52;;;8.25;;
48578;SDS011;34357;51.948;6.132;2023-09-07T02:49:33;12.65;;;8.43;;
48578;SDS011;34357;51.948;6.132;2023-09-07T02:51:59;11.48;;;7.40;;
48578;SDS011;34357;51.948;6.132;2023-09-07T02:54:24;9.35;;;7.93;;
48578;SDS011;34357;51.948;6.132;2023-09-07T02:56:50;11.13;;;8.52;;
48578;SDS011;34357;51.948;6.132;2023-09-07T02:59:16;9.27;;;7.72;;
48578;SDS011;34357;51.948;6.132;2023-09-07T03:01:42;10.30;;;7.40;;
48578;SDS011;34357;51.948;6.132;2023-09-07T03:04:07;9.82;;;7.78;;
48578;SDS011;34357;51.948;6.132;2023-09-07T03:06:34;9.35;;;7.88;;
48578;SDS011;34357;51.948;6.132;2023-09-07T03:09:00;12.88;;;8.20;;
48578;SDS011;34357;51.948;6.132;2023-09-07T03:11:25;12.73;;;8.65;;
48578;SDS011;34357;51.948;6.132;2023-09-07T03:13:51;9.13;;;8.07;;
48578;SDS011;34357;51.948;6.132;2023-09-07T03:16:17;11.85;;;8.35;;
48578;SDS011;34357;51.948;6.132;2023-09-07T03:18:43;9.55;;;8.57;;
48578;SDS011;34357;51.948;6.132;2023-09-07T03:21:10;11.60;;;8.95;;
48578;SDS011;34357;51.948;6.132;2023-09-07T03:23:35;13.00;;;9.52;;
48578;SDS011;34357;51.948;6.132;2023-09-07T03:26:02;11.45;;;9.48;;
48578;SDS011;34357;51.948;6.132;2023-09-07T03:28:28;11.32;;;9.40;;
48578;SDS011;34357;51.948;6.132;2023-09-07T03:30:54;11.00;;;9.50;;
48578;SDS011;34357;51.948;6.132;2023-09-07T03:33:20;10.85;;;9.75;;
48578;SDS011;34357;51.948;6.132;2023-09-07T03:35:46;12.45;;;9.85;;
48578;SDS011;34357;51.948;6.132;2023-09-07T03:38:12;12.65;;;10.57;;
48578;SDS011;34357;51.948;6.132;2023-09-07T03:40:39;13.98;;;11.23;;
48578;SDS011;34357;51.948;6.132;2023-09-07T03:43:05;14.23;;;11.00;;
48578;SDS011;34357;51.948;6.132;2023-09-07T03:45:31;14.85;;;11.85;;
48578;SDS011;34357;51.948;6.132;2023-09-07T03:47:57;12.57;;;10.25;;
48578;SDS011;34357;51.948;6.132;2023-09-07T03:50:23;11.13;;;9.85;;
48578;SDS011;34357;51.948;6.132;2023-09-07T03:52:49;15.35;;;11.85;;
48578;SDS011;34357;51.948;6.132;2023-09-07T03:55:14;18.02;;;12.80;;
48578;SDS011;34357;51.948;6.132;2023-09-07T03:57:40;15.40;;;12.55;;
48578;SDS011;34357;51.948;6.132;2023-09-07T04:00:06;15.40;;;12.13;;
48578;SDS011;34357;51.948;6.132;2023-09-07T04:02:38;15.40;;;12.60;;
48578;SDS011;34357;51.948;6.132;2023-09-07T04:05:05;14.75;;;12.40;;
48578;SDS011;34357;51.948;6.132;2023-09-07T04:07:31;14.18;;;12.13;;
48578;SDS011;34357;51.948;6.132;2023-09-07T04:09:58;12.52;;;11.23;;
48578;SDS011;34357;51.948;6.132;2023-09-07T04:12:24;13.57;;;11.80;;
48578;SDS011;34357;51.948;6.132;2023-09-07T04:14:50;13.52;;;11.57;;
48578;SDS011;34357;51.948;6.132;2023-09-07T04:17:16;12.60;;;11.32;;
48578;SDS011;34357;51.948;6.132;2023-09-07T04:19:41;14.20;;;12.43;;
48578;SDS011;34357;51.948;6.132;2023-09-07T04:22:08;14.98;;;13.48;;
48578;SDS011;34357;51.948;6.132;2023-09-07T04:24:35;19.50;;;14.25;;
48578;SDS011;34357;51.948;6.132;2023-09-07T04:27:03;15.07;;;12.77;;
48578;SDS011;34357;51.948;6.132;2023-09-07T04:29:31;17.10;;;13.90;;
48578;SDS011;34357;51.948;6.132;2023-09-07T04:31:57;18.50;;;13.10;;
48578;SDS011;34357;51.948;6.132;2023-09-07T04:34:23;15.65;;;13.85;;
48578;SDS011;34357;51.948;6.132;2023-09-07T04:36:49;16.55;;;13.13;;
48578;SDS011;34357;51.948;6.132;2023-09-07T04:39:15;15.75;;;13.45;;
48578;SDS011;34357;51.948;6.132;2023-09-07T04:41:41;16.55;;;13.80;;
48578;SDS011;34357;51.948;6.132;2023-09-07T04:44:07;17.02;;;14.05;;
48578;SDS011;34357;51.948;6.132;2023-09-07T04:46:33;16.67;;;14.57;;
48578;SDS011;34357;51.948;6.132;2023-09-07T04:48:59;21.15;;;14.70;;
48578;SDS011;34357;51.948;6.132;2023-09-07T04:51:25;16.02;;;13.95;;
48578;SDS011;34357;51.948;6.132;2023-09-07T04:53:51;19.02;;;14.25;;
48578;SDS011;34357;51.948;6.132;2023-09-07T04:56:17;15.68;;;13.95;;
48578;SDS011;34357;51.948;6.132;2023-09-07T04:58:43;19.48;;;14.77;;
48578;SDS011;34357;51.948;6.132;2023-09-07T05:01:10;18.58;;;13.95;;
48578;SDS011;34357;51.948;6.132;2023-09-07T05:03:37;17.90;;;14.05;;
48578;SDS011;34357;51.948;6.132;2023-09-07T05:06:07;18.65;;;14.05;;
48578;SDS011;34357;51.948;6.132;2023-09-07T05:08:33;18.20;;;14.73;;
48578;SDS011;34357;51.948;6.132;2023-09-07T05:11:00;18.73;;;14.02;;
48578;SDS011;34357;51.948;6.132;2023-09-07T05:13:28;15.18;;;13.15;;
48578;SDS011;34357;51.948;6.132;2023-09-07T05:15:55;16.88;;;14.43;;
48578;SDS011;34357;51.948;6.132;2023-09-07T05:18:23;18.30;;;14.05;;
48578;SDS011;34357;51.948;6.132;2023-09-07T05:20:48;15.77;;;14.10;;
48578;SDS011;34357;51.948;6.132;2023-09-07T05:23:20;17.95;;;14.43;;
48578;SDS011;34357;51.948;6.132;2023-09-07T05:25:47;15.15;;;13.32;;
48578;SDS011;34357;51.948;6.132;2023-09-07T05:28:16;16.50;;;13.65;;
48578;SDS011;34357;51.948;6.132;2023-09-07T05:30:42;13.85;;;12.38;;
48578;SDS011;34357;51.948;6.132;2023-09-07T05:33:09;17.30;;;13.60;;
48578;SDS011;34357;51.948;6.132;2023-09-07T05:35:36;14.32;;;12.52;;
48578;SDS011;34357;51.948;6.132;2023-09-07T05:38:03;14.13;;;12.70;;
48578;SDS011;34357;51.948;6.132;2023-09-07T05:40:35;18.60;;;12.95;;
48578;SDS011;34357;51.948;6.132;2023-09-07T05:43:02;15.30;;;13.20;;
48578;SDS011;34357;51.948;6.132;2023-09-07T05:45:33;14.57;;;13.10;;
48578;SDS011;34357;51.948;6.132;2023-09-07T05:48:02;14.20;;;12.77;;
48578;SDS011;34357;51.948;6.132;2023-09-07T05:50:29;19.77;;;14.32;;
48578;SDS011;34357;51.948;6.132;2023-09-07T05:52:55;17.00;;;14.15;;
48578;SDS011;34357;51.948;6.132;2023-09-07T05:55:21;15.13;;;12.80;;
48578;SDS011;34357;51.948;6.132;2023-09-07T05:57:48;15.32;;;12.23;;
48578;SDS011;34357;51.948;6.132;2023-09-07T06:00:14;14.45;;;10.52;;
48578;SDS011;34357;51.948;6.132;2023-09-07T06:02:42;10.60;;;9.48;;
48578;SDS011;34357;51.948;6.132;2023-09-07T06:05:10;15.77;;;9.52;;
48578;SDS011;34357;51.948;6.132;2023-09-07T06:07:36;12.40;;;9.13;;
48578;SDS011;34357;51.948;6.132;2023-09-07T06:10:02;9.05;;;8.15;;
48578;SDS011;34357;51.948;6.132;2023-09-07T06:12:31;9.48;;;8.23;;
48578;SDS011;34357;51.948;6.132;2023-09-07T06:14:57;8.82;;;7.70;;
48578;SDS011;34357;51.948;6.132;2023-09-07T06:17:23;11.52;;;7.55;;
48578;SDS011;34357;51.948;6.132;2023-09-07T06:19:49;11.85;;;8.23;;
48578;SDS011;34357;51.948;6.132;2023-09-07T06:22:14;9.57;;;7.85;;
48578;SDS011;34357;51.948;6.132;2023-09-07T06:24:40;11.45;;;8.35;;
48578;SDS011;34357;51.948;6.132;2023-09-07T06:27:06;15.50;;;7.40;;
48578;SDS011;34357;51.948;6.132;2023-09-07T06:29:32;8.93;;;6.95;;
48578;SDS011;34357;51.948;6.132;2023-09-07T06:31:57;11.77;;;7.65;;
48578;SDS011;34357;51.948;6.132;2023-09-07T06:34:23;9.10;;;7.07;;
48578;SDS011;34357;51.948;6.132;2023-09-07T06:36:49;9.20;;;8.23;;
48578;SDS011;34357;51.948;6.132;2023-09-07T06:39:18;12.43;;;8.18;;
48578;SDS011;34357;51.948;6.132;2023-09-07T06:41:45;9.57;;;8.10;;
48578;SDS011;34357;51.948;6.132;2023-09-07T06:44:12;11.35;;;8.50;;
48578;SDS011;34357;51.948;6.132;2023-09-07T06:46:38;14.02;;;9.25;;
48578;SDS011;34357;51.948;6.132;2023-09-07T06:49:03;12.45;;;9.30;;
48578;SDS011;34357;51.948;6.132;2023-09-07T06:51:32;12.30;;;9.50;;
48578;SDS011;34357;51.948;6.132;2023-09-07T06:53:58;10.93;;;9.48;;
48578;SDS011;34357;51.948;6.132;2023-09-07T06:56:25;9.73;;;8.73;;
48578;SDS011;34357;51.948;6.132;2023-09-07T06:58:52;13.63;;;8.98;;
48578;SDS011;34357;51.948;6.132;2023-09-07T07:01:18;10.43;;;7.95;;
48578;SDS011;34357;51.948;6.132;2023-09-07T07:03:44;12.35;;;7.95;;
48578;SDS011;34357;51.948;6.132;2023-09-07T07:06:11;10.52;;;7.97;;
48578;SDS011;34357;51.948;6.132;2023-09-07T07:08:37;12.20;;;8.32;;
48578;SDS011;34357;51.948;6.132;2023-09-07T07:11:03;10.73;;;8.43;;
48578;SDS011;34357;51.948;6.132;2023-09-07T07:13:29;12.00;;;8.40;;
48578;SDS011;34357;51.948;6.132;2023-09-07T07:15:55;15.40;;;9.10;;
48578;SDS011;34357;51.948;6.132;2023-09-07T07:18:21;12.15;;;8.40;;
48578;SDS011;34357;51.948;6.132;2023-09-07T07:20:49;15.88;;;8.50;;
48578;SDS011;34357;51.948;6.132;2023-09-07T07:23:16;14.30;;;8.55;;
48578;SDS011;34357;51.948;6.132;2023-09-07T07:25:42;10.15;;;8.60;;
48578;SDS011;34357;51.948;6.132;2023-09-07T07:28:09;14.93;;;8.57;;
48578;SDS011;34357;51.948;6.132;2023-09-07T07:30:36;10.77;;;8.50;;
48578;SDS011;34357;51.948;6.132;2023-09-07T07:33:03;11.40;;;8.00;;
48578;SDS011;34357;51.948;6.132;2023-09-07T07:35:31;10.90;;;7.75;;
48578;SDS011;34357;51.948;6.132;2023-09-07T07:38:01;13.52;;;7.90;;
48578;SDS011;34357;51.948;6.132;2023-09-07T07:40:37;10.07;;;8.00;;
48578;SDS011;34357;51.948;6.132;2023-09-07T07:43:04;10.60;;;8.80;;
48578;SDS011;34357;51.948;6.132;2023-09-07T07:45:30;13.00;;;8.02;;
48578;SDS011;34357;51.948;6.132;2023-09-07T07:47:57;12.32;;;7.97;;
48578;SDS011;34357;51.948;6.132;2023-09-07T07:50:23;12.52;;;8.25;;
48578;SDS011;34357;51.948;6.132;2023-09-07T07:52:49;11.88;;;7.60;;
48578;SDS011;34357;51.948;6.132;2023-09-07T07:55:15;10.85;;;8.30;;
48578;SDS011;34357;51.948;6.132;2023-09-07T07:57:41;13.82;;;7.60;;
48578;SDS011;34357;51.948;6.132;2023-09-07T08:00:09;10.75;;;8.00;;
48578;SDS011;34357;51.948;6.132;2023-09-07T08:02:48;12.40;;;8.48;;
48578;SDS011;34357;51.948;6.132;2023-09-07T08:05:14;8.85;;;7.53;;
48578;SDS011;34357;51.948;6.132;2023-09-07T08:07:40;14.35;;;8.50;;
48578;SDS011;34357;51.948;6.132;2023-09-07T08:10:06;16.13;;;8.43;;
48578;SDS011;34357;51.948;6.132;2023-09-07T08:12:33;9.27;;;8.05;;
48578;SDS011;34357;51.948;6.132;2023-09-07T08:14:59;8.85;;;7.45;;
48578;SDS011;34357;51.948;6.132;2023-09-07T08:17:25;11.73;;;8.60;;
48578;SDS011;34357;51.948;6.132;2023-09-07T08:19:54;14.82;;;8.75;;
48578;SDS011;34357;51.948;6.132;2023-09-07T08:22:24;9.60;;;8.38;;
48578;SDS011;34357;51.948;6.132;2023-09-07T08:24:50;13.00;;;7.90;;
48578;SDS011;34357;51.948;6.132;2023-09-07T08:27:17;10.20;;;7.70;;
48578;SDS011;34357;51.948;6.132;2023-09-07T08:29:46;12.93;;;7.70;;
48578;SDS011;34357;51.948;6.132;2023-09-07T08:32:14;8.40;;;6.88;;
48578;SDS011;34357;51.948;6.132;2023-09-07T08:34:40;10.68;;;8.20;;
48578;SDS011;34357;51.948;6.132;2023-09-07T08:37:07;11.57;;;7.45;;
48578;SDS011;34357;51.948;6.132;2023-09-07T08:39:34;10.43;;;8.38;;
48578;SDS011;34357;51.948;6.132;2023-09-07T08:42:00;14.48;;;7.35;;
48578;SDS011;34357;51.948;6.132;2023-09-07T08:44:26;9.57;;;7.68;;
48578;SDS011;34357;51.948;6.132;2023-09-07T08:46:53;8.15;;;6.90;;
48578;SDS011;34357;51.948;6.132;2023-09-07T08:49:20;11.27;;;6.88;;
48578;SDS011;34357;51.948;6.132;2023-09-07T08:51:48;11.10;;;7.10;;
48578;SDS011;34357;51.948;6.132;2023-09-07T08:54:15;11.52;;;6.78;;
48578;SDS011;34357;51.948;6.132;2023-09-07T08:56:40;8.25;;;5.85;;
48578;SDS011;34357;51.948;6.132;2023-09-07T08:59:06;7.18;;;5.30;;
48578;SDS011;34357;51.948;6.132;2023-09-07T09:01:33;7.72;;;5.35;;
48578;SDS011;34357;51.948;6.132;2023-09-07T09:03:58;7.00;;;5.15;;
48578;SDS011;34357;51.948;6.132;2023-09-07T09:06:24;7.80;;;5.50;;
48578;SDS011;34357;51.948;6.132;2023-09-07T09:08:51;12.10;;;5.65;;
48578;SDS011;34357;51.948;6.132;2023-09-07T09:11:21;7.68;;;5.53;;
48578;SDS011;34357;51.948;6.132;2023-09-07T09:13:48;11.88;;;4.85;;
48578;SDS011;34357;51.948;6.132;2023-09-07T09:16:15;9.82;;;5.65;;
48578;SDS011;34357;51.948;6.132;2023-09-07T09:18:48;10.57;;;4.47;;
48578;SDS011;34357;51.948;6.132;2023-09-07T09:21:22;5.28;;;3.65;;
48578;SDS011;34357;51.948;6.132;2023-09-07T09:23:49;5.35;;;3.42;;
48578;SDS011;34357;51.948;6.132;2023-09-07T09:26:18;4.07;;;3.40;;
48578;SDS011;34357;51.948;6.132;2023-09-07T09:28:45;13.18;;;3.15;;
48578;SDS011;34357;51.948;6.132;2023-09-07T09:31:11;5.88;;;3.03;;
48578;SDS011;34357;51.948;6.132;2023-09-07T09:33:38;5.15;;;3.03;;
48578;SDS011;34357;51.948;6.132;2023-09-07T09:36:05;6.45;;;3.30;;
48578;SDS011;34357;51.948;6.132;2023-09-07T09:38:32;5.53;;;3.28;;
48578;SDS011;34357;51.948;6.132;2023-09-07T09:40:58;5.53;;;3.13;;
48578;SDS011;34357;51.948;6.132;2023-09-07T09:43:25;5.05;;;3.15;;
48578;SDS011;34357;51.948;6.132;2023-09-07T09:45:51;5.85;;;3.30;;
48578;SDS011;34357;51.948;6.132;2023-09-07T09:48:21;5.68;;;3.00;;
48578;SDS011;34357;51.948;6.132;2023-09-07T09:50:48;8.55;;;3.20;;
48578;SDS011;34357;51.948;6.132;2023-09-07T09:53:17;4.50;;;3.35;;
48578;SDS011;34357;51.948;6.132;2023-09-07T09:58:14;7.25;;;3.53;;
48578;SDS011;34357;51.948;6.132;2023-09-07T10:00:45;6.15;;;3.45;;
48578;SDS011;34357;51.948;6.132;2023-09-07T10:03:19;6.20;;;3.55;;
48578;SDS011;34357;51.948;6.132;2023-09-07T10:05:52;6.35;;;3.40;;
48578;SDS011;34357;51.948;6.132;2023-09-07T10:08:18;6.65;;;3.00;;
48578;SDS011;34357;51.948;6.132;2023-09-07T10:10:48;3.50;;;2.97;;
48578;SDS011;34357;51.948;6.132;2023-09-07T10:13:28;4.90;;;3.10;;
48578;SDS011;34357;51.948;6.132;2023-09-07T10:16:02;7.28;;;3.05;;
48578;SDS011;34357;51.948;6.132;2023-09-07T10:18:38;6.65;;;3.17;;
48578;SDS011;34357;51.948;6.132;2023-09-07T10:21:04;3.75;;;2.78;;
48578;SDS011;34357;51.948;6.132;2023-09-07T10:28:38;8.60;;;3.15;;
48578;SDS011;34357;51.948;6.132;2023-09-07T10:33:32;6.00;;;3.25;;
48578;SDS011;34357;51.948;6.132;2023-09-07T10:35:59;6.28;;;2.92;;
48578;SDS011;34357;51.948;6.132;2023-09-07T10:38:26;5.25;;;3.20;;
48578;SDS011;34357;51.948;6.132;2023-09-07T10:40:56;3.80;;;3.05;;
48578;SDS011;34357;51.948;6.132;2023-09-07T10:43:26;4.72;;;3.20;;
48578;SDS011;34357;51.948;6.132;2023-09-07T10:45:56;4.13;;;2.88;;
48578;SDS011;34357;51.948;6.132;2023-09-07T10:48:23;4.93;;;3.05;;
48578;SDS011;34357;51.948;6.132;2023-09-07T10:50:50;5.97;;;2.95;;
48578;SDS011;34357;51.948;6.132;2023-09-07T10:53:24;5.05;;;3.15;;
48578;SDS011;34357;51.948;6.132;2023-09-07T10:55:52;5.35;;;3.00;;
48578;SDS011;34357;51.948;6.132;2023-09-07T10:58:29;5.32;;;3.20;;
48578;SDS011;34357;51.948;6.132;2023-09-07T11:00:56;5.20;;;3.28;;
48578;SDS011;34357;51.948;6.132;2023-09-07T11:03:23;8.38;;;3.20;;
48578;SDS011;34357;51.948;6.132;2023-09-07T11:05:51;6.20;;;2.70;;
48578;SDS011;34357;51.948;6.132;2023-09-07T11:08:21;5.93;;;3.35;;
48578;SDS011;34357;51.948;6.132;2023-09-07T11:10:49;4.30;;;2.63;;
48578;SDS011;34357;51.948;6.132;2023-09-07T11:13:16;6.22;;;2.75;;
48578;SDS011;34357;51.948;6.132;2023-09-07T11:15:41;4.32;;;2.60;;
48578;SDS011;34357;51.948;6.132;2023-09-07T11:18:08;4.15;;;3.00;;
48578;SDS011;34357;51.948;6.132;2023-09-07T11:20:34;5.45;;;3.00;;
48578;SDS011;34357;51.948;6.132;2023-09-07T11:23:01;3.15;;;2.78;;
48578;SDS011;34357;51.948;6.132;2023-09-07T11:25:33;4.13;;;2.88;;
48578;SDS011;34357;51.948;6.132;2023-09-07T11:28:01;7.35;;;3.55;;
48578;SDS011;34357;51.948;6.132;2023-09-07T11:30:28;5.15;;;2.95;;
48578;SDS011;34357;51.948;6.132;2023-09-07T11:33:05;5.70;;;2.80;;
48578;SDS011;34357;51.948;6.132;2023-09-07T11:35:32;3.45;;;2.50;;
48578;SDS011;34357;51.948;6.132;2023-09-07T11:38:02;2.95;;;2.63;;
48578;SDS011;34357;51.948;6.132;2023-09-07T11:40:30;6.80;;;3.28;;
48578;SDS011;34357;51.948;6.132;2023-09-07T11:42:56;6.00;;;2.97;;
48578;SDS011;34357;51.948;6.132;2023-09-07T11:45:22;3.90;;;2.90;;
48578;SDS011;34357;51.948;6.132;2023-09-07T11:47:48;3.33;;;2.80;;
48578;SDS011;34357;51.948;6.132;2023-09-07T11:50:16;4.13;;;3.08;;
48578;SDS011;34357;51.948;6.132;2023-09-07T11:52:42;8.43;;;3.30;;
48578;SDS011;34357;51.948;6.132;2023-09-07T11:55:08;7.95;;;3.05;;
48578;SDS011;34357;51.948;6.132;2023-09-07T11:57:36;4.07;;;3.00;;
48578;SDS011;34357;51.948;6.132;2023-09-07T12:00:02;6.28;;;3.38;;
48578;SDS011;34357;51.948;6.132;2023-09-07T12:02:39;9.05;;;3.05;;
48578;SDS011;34357;51.948;6.132;2023-09-07T12:05:05;11.30;;;3.58;;
48578;SDS011;34357;51.948;6.132;2023-09-07T12:07:38;3.60;;;3.05;;
48578;SDS011;34357;51.948;6.132;2023-09-07T12:10:03;5.22;;;3.10;;
48578;SDS011;34357;51.948;6.132;2023-09-07T12:12:30;5.45;;;3.13;;
48578;SDS011;34357;51.948;6.132;2023-09-07T12:14:55;4.55;;;2.80;;
48578;SDS011;34357;51.948;6.132;2023-09-07T12:17:21;7.25;;;3.28;;
48578;SDS011;34357;51.948;6.132;2023-09-07T12:19:50;4.45;;;3.20;;
48578;SDS011;34357;51.948;6.132;2023-09-07T12:22:16;4.93;;;2.90;;
48578;SDS011;34357;51.948;6.132;2023-09-07T12:24:41;5.00;;;2.70;;
48578;SDS011;34357;51.948;6.132;2023-09-07T12:27:07;5.85;;;3.03;;
48578;SDS011;34357;51.948;6.132;2023-09-07T12:29:33;4.45;;;3.20;;
48578;SDS011;34357;51.948;6.132;2023-09-07T12:31:59;4.15;;;3.20;;
48578;SDS011;34357;51.948;6.132;2023-09-07T12:34:24;6.28;;;3.20;;
48578;SDS011;34357;51.948;6.132;2023-09-07T12:36:50;4.35;;;3.03;;
48578;SDS011;34357;51.948;6.132;2023-09-07T12:39:16;4.82;;;3.10;;
48578;SDS011;34357;51.948;6.132;2023-09-07T12:41:42;4.38;;;3.22;;
48578;SDS011;34357;51.948;6.132;2023-09-07T12:44:08;4.68;;;2.63;;
48578;SDS011;34357;51.948;6.132;2023-09-07T12:46:34;3.70;;;3.08;;
48578;SDS011;34357;51.948;6.132;2023-09-07T12:49:02;8.55;;;2.75;;
48578;SDS011;34357;51.948;6.132;2023-09-07T12:51:28;5.68;;;3.30;;
48578;SDS011;34357;51.948;6.132;2023-09-07T12:53:53;5.10;;;3.28;;
48578;SDS011;34357;51.948;6.132;2023-09-07T12:56:19;6.13;;;3.55;;
48578;SDS011;34357;51.948;6.132;2023-09-07T12:58:45;5.90;;;3.60;;
48578;SDS011;34357;51.948;6.132;2023-09-07T13:01:11;7.00;;;3.30;;
48578;SDS011;34357;51.948;6.132;2023-09-07T13:03:40;4.63;;;3.22;;
48578;SDS011;34357;51.948;6.132;2023-09-07T13:06:06;7.38;;;3.53;;
48578;SDS011;34357;51.948;6.132;2023-09-07T13:08:32;6.05;;;3.40;;
48578;SDS011;34357;51.948;6.132;2023-09-07T13:10:58;7.00;;;3.30;;
48578;SDS011;34357;51.948;6.132;2023-09-07T13:13:24;9.65;;;3.55;;
48578;SDS011;34357;51.948;6.132;2023-09-07T13:15:56;3.90;;;3.47;;
48578;SDS011;34357;51.948;6.132;2023-09-07T13:18:22;3.92;;;3.40;;
48578;SDS011;34357;51.948;6.132;2023-09-07T13:20:48;6.88;;;3.80;;
48578;SDS011;34357;51.948;6.132;2023-09-07T13:23:17;5.43;;;3.60;;
48578;SDS011;34357;51.948;6.132;2023-09-07T13:25:43;8.68;;;3.53;;
48578;SDS011;34357;51.948;6.132;2023-09-07T13:28:08;6.47;;;3.63;;
48578;SDS011;34357;51.948;6.132;2023-09-07T13:30:34;6.20;;;3.78;;
48578;SDS011;34357;51.948;6.132;2023-09-07T13:33:00;8.48;;;3.83;;
48578;SDS011;34357;51.948;6.132;2023-09-07T13:35:26;4.40;;;3.30;;
48578;SDS011;34357;51.948;6.132;2023-09-07T13:37:51;6.55;;;3.90;;
48578;SDS011;34357;51.948;6.132;2023-09-07T13:40:18;7.65;;;4.03;;
48578;SDS011;34357;51.948;6.132;2023-09-07T13:42:44;5.53;;;3.70;;
48578;SDS011;34357;51.948;6.132;2023-09-07T13:45:13;6.40;;;3.67;;
48578;SDS011;34357;51.948;6.132;2023-09-07T13:47:39;4.60;;;3.58;;
48578;SDS011;34357;51.948;6.132;2023-09-07T13:50:04;4.85;;;3.53;;
48578;SDS011;34357;51.948;6.132;2023-09-07T13:52:32;5.82;;;3.85;;
48578;SDS011;34357;51.948;6.132;2023-09-07T13:54:57;4.78;;;3.42;;
48578;SDS011;34357;51.948;6.132;2023-09-07T13:57:23;5.07;;;3.70;;
48578;SDS011;34357;51.948;6.132;2023-09-07T13:59:49;7.32;;;3.92;;
48578;SDS011;34357;51.948;6.132;2023-09-07T14:02:15;5.95;;;3.65;;
48578;SDS011;34357;51.948;6.132;2023-09-07T14:04:40;11.13;;;3.83;;
48578;SDS011;34357;51.948;6.132;2023-09-07T14:07:06;6.35;;;3.70;;
48578;SDS011;34357;51.948;6.132;2023-09-07T14:09:32;9.88;;;3.70;;
48578;SDS011;34357;51.948;6.132;2023-09-07T14:11:58;7.68;;;3.60;;
48578;SDS011;34357;51.948;6.132;2023-09-07T14:14:24;5.40;;;3.65;;
48578;SDS011;34357;51.948;6.132;2023-09-07T14:16:50;7.95;;;3.88;;
48578;SDS011;34357;51.948;6.132;2023-09-07T14:19:20;8.77;;;3.87;;
48578;SDS011;34357;51.948;6.132;2023-09-07T14:21:46;13.95;;;3.97;;
48578;SDS011;34357;51.948;6.132;2023-09-07T14:24:11;5.07;;;3.60;;
48578;SDS011;34357;51.948;6.132;2023-09-07T14:26:37;18.30;;;4.55;;
48578;SDS011;34357;51.948;6.132;2023-09-07T14:29:03;8.70;;;3.97;;
48578;SDS011;34357;51.948;6.132;2023-09-07T14:31:30;7.60;;;4.10;;
48578;SDS011;34357;51.948;6.132;2023-09-07T14:33:55;7.03;;;3.70;;
48578;SDS011;34357;51.948;6.132;2023-09-07T14:36:21;6.28;;;3.55;;
48578;SDS011;34357;51.948;6.132;2023-09-07T14:38:47;7.15;;;4.00;;
48578;SDS011;34357;51.948;6.132;2023-09-07T14:41:13;6.22;;;3.70;;
48578;SDS011;34357;51.948;6.132;2023-09-07T14:43:47;10.32;;;3.40;;
48578;SDS011;34357;51.948;6.132;2023-09-07T14:46:14;7.38;;;3.83;;
48578;SDS011;34357;51.948;6.132;2023-09-07T14:48:40;5.63;;;3.88;;